createdAt,value
2022-08-05T00:02:14.420Z,1.63
2022-08-05T00:05:05.646Z,1.55
2022-08-05T00:08:00.060Z,1.42
2022-08-05T00:10:47.617Z,1.50
2022-08-05T00:13:38.877Z,1.40
2022-08-05T00:16:36.395Z,1.60
2022-08-05T00:19:44.091Z,1.40
2022-08-05T00:22:34.065Z,1.27
2022-08-05T00:25:21.300Z,1.55
2022-08-05T00:28:07.672Z,1.70
2022-08-05T00:31:04.177Z,1.45
2022-08-05T00:34:55.262Z,1.52
2022-08-05T00:37:11.599Z,1.52
2022-08-05T00:40:02.189Z,1.65
2022-08-05T00:42:50.047Z,1.75
2022-08-05T00:45:42.891Z,1.58
2022-08-05T00:51:51.376Z,1.80
2022-08-05T00:54:27.963Z,1.60
2022-08-05T00:57:16.232Z,1.70
2022-08-05T01:00:11.177Z,1.60
2022-08-05T01:03:00.554Z,1.77
2022-08-05T01:05:47.316Z,1.80
2022-08-05T01:08:43.058Z,2.00
2022-08-05T01:11:37.263Z,1.80
2022-08-05T01:14:32.575Z,2.00
2022-08-05T01:17:27.802Z,2.30
2022-08-05T01:20:31.421Z,1.70
2022-08-05T01:23:34.707Z,1.65
2022-08-05T01:26:41.214Z,1.73
2022-08-05T01:29:35.582Z,1.80
2022-08-05T01:32:27.563Z,1.48
2022-08-05T01:35:50.636Z,1.83
2022-08-05T01:38:30.021Z,1.92
2022-08-05T01:41:21.888Z,2.22
2022-08-05T01:44:11.238Z,1.80
2022-08-05T01:47:01.529Z,2.13
2022-08-05T01:50:02.267Z,2.08
2022-08-05T01:52:50.915Z,1.58
2022-08-05T01:55:39.230Z,1.92
2022-08-05T01:58:40.832Z,2.47
2022-08-05T02:01:39.926Z,2.15
2022-08-05T02:04:31.020Z,2.17
2022-08-05T02:07:22.155Z,1.90
2022-08-05T02:10:10.861Z,1.75
2022-08-05T02:13:16.563Z,1.80
2022-08-05T02:16:08.449Z,1.77
2022-08-05T02:19:11.670Z,2.00
2022-08-05T02:22:06.429Z,2.08
2022-08-05T02:24:55.014Z,1.80
2022-08-05T02:27:59.616Z,2.33
2022-08-05T02:30:56.566Z,2.53
2022-08-05T02:33:49.850Z,2.47
2022-08-05T02:36:49.084Z,2.30
2022-08-05T02:39:41.132Z,2.20
2022-08-05T02:42:34.281Z,2.15
2022-08-05T02:45:25.262Z,2.47
2022-08-05T02:48:13.406Z,2.20
2022-08-05T02:51:01.748Z,2.25
2022-08-05T02:53:49.886Z,2.10
2022-08-05T02:56:46.064Z,2.20
2022-08-05T02:59:50.156Z,2.15
2022-08-05T03:02:42.856Z,2.17
2022-08-05T03:06:54.425Z,2.25
2022-08-05T03:08:37.554Z,2.25
2022-08-05T03:11:55.421Z,2.47
2022-08-05T03:14:45.983Z,2.35
2022-08-05T03:17:41.548Z,1.80
2022-08-05T03:20:28.561Z,2.05
2022-08-05T03:23:16.490Z,2.13
2022-08-05T03:26:30.486Z,1.85
2022-08-05T03:29:12.416Z,2.00
2022-08-05T03:34:55.406Z,2.08
2022-08-05T03:37:46.557Z,2.00
2022-08-05T03:40:33.531Z,2.20
2022-08-05T03:44:08.633Z,2.05
2022-08-05T03:46:32.446Z,2.25
2022-08-05T03:49:20.754Z,2.05
2022-08-05T03:52:38.771Z,2.65
2022-08-05T03:56:01.144Z,2.67
2022-08-05T03:58:37.850Z,2.10
2022-08-05T04:01:32.129Z,2.30
2022-08-05T04:04:22.346Z,2.15
2022-08-05T04:07:14.031Z,2.60
2022-08-05T04:10:01.621Z,2.55
2022-08-05T04:12:50.480Z,2.10
2022-08-05T04:15:37.721Z,2.03
2022-08-05T04:18:25.705Z,2.25
2022-08-05T04:21:13.906Z,2.50
2022-08-05T04:24:22.731Z,2.25
2022-08-05T04:27:10.126Z,2.40
2022-08-05T04:29:57.003Z,2.40
2022-08-05T04:32:43.821Z,2.70
2022-08-05T04:36:11.320Z,2.50
2022-08-05T04:38:39.516Z,2.85
2022-08-05T04:41:37.081Z,2.70
2022-08-05T04:44:29.354Z,2.30
2022-08-05T04:47:18.743Z,2.73
2022-08-05T04:50:10.968Z,2.25
2022-08-05T04:52:58.046Z,2.70
2022-08-05T04:56:33.487Z,2.40
2022-08-05T04:58:53.710Z,3.00
2022-08-05T05:02:35.282Z,3.22
2022-08-05T05:04:48.053Z,2.92
2022-08-05T05:07:37.104Z,3.03
2022-08-05T05:10:33.885Z,2.85
2022-08-05T05:13:21.731Z,2.40
2022-08-05T05:16:08.437Z,2.40
2022-08-05T05:19:17.634Z,2.28
2022-08-05T05:22:03.582Z,2.38
2022-08-05T05:25:16.374Z,2.22
2022-08-05T05:28:04.326Z,1.88
2022-08-05T05:30:52.299Z,2.33
2022-08-05T05:33:59.822Z,2.10
2022-08-05T05:36:45.655Z,2.55
2022-08-05T05:39:35.203Z,2.33
2022-08-05T05:42:22.891Z,2.03
2022-08-05T05:45:11.467Z,1.98
2022-08-05T05:48:06.464Z,2.63
2022-08-05T05:50:55.177Z,2.10
2022-08-05T05:53:54.559Z,1.83
2022-08-05T05:59:40.291Z,1.40
2022-08-05T06:02:32.933Z,1.90
2022-08-05T06:05:25.945Z,1.65
2022-08-05T06:08:13.121Z,1.50
2022-08-05T06:11:00.179Z,1.60
2022-08-05T06:13:53.865Z,1.67
2022-08-05T06:16:41.789Z,1.52
2022-08-05T06:19:34.792Z,2.03
2022-08-05T06:22:26.446Z,1.80
2022-08-05T06:25:24.580Z,2.10
2022-08-05T06:28:21.641Z,2.00
2022-08-05T06:31:11.110Z,1.70
2022-08-05T06:34:09.200Z,2.00
2022-08-05T06:36:57.988Z,2.17
2022-08-05T06:39:47.149Z,1.90
2022-08-05T06:42:33.840Z,2.00
2022-08-05T06:46:03.008Z,2.42
2022-08-05T06:48:55.797Z,1.80
2022-08-05T06:51:35.933Z,1.83
2022-08-05T06:54:27.428Z,1.60
2022-08-05T06:58:02.981Z,1.38
2022-08-05T07:00:25.423Z,1.60
2022-08-05T07:03:12.429Z,1.60
2022-08-05T07:05:59.458Z,2.30
2022-08-05T07:08:47.822Z,2.60
2022-08-05T07:11:39.873Z,2.40
2022-08-05T07:14:45.869Z,2.38
2022-08-05T07:18:01.316Z,2.90
2022-08-05T07:20:39.217Z,2.63
2022-08-05T07:23:29.549Z,2.03
2022-08-05T07:26:22.465Z,2.15
2022-08-05T07:29:09.801Z,1.60
2022-08-05T07:31:58.182Z,1.55
2022-08-05T07:34:44.681Z,1.52
2022-08-05T07:37:35.915Z,1.67
2022-08-05T07:40:26.951Z,1.65
2022-08-05T07:43:20.627Z,1.42
2022-08-05T07:46:18.886Z,1.25
2022-08-05T07:49:14.310Z,1.75
2022-08-05T07:52:01.030Z,1.10
2022-08-05T07:54:49.241Z,1.40
2022-08-05T07:57:51.248Z,1.50
2022-08-05T08:00:43.391Z,1.52
2022-08-05T08:03:44.828Z,1.40
2022-08-05T08:06:33.341Z,1.10
2022-08-05T08:09:20.384Z,1.20
2022-08-05T08:12:37.082Z,1.35
2022-08-05T08:15:16.032Z,1.30
2022-08-05T08:18:05.042Z,1.77
2022-08-05T08:21:02.288Z,1.60
2022-08-05T08:24:03.269Z,1.50
2022-08-05T08:26:51.063Z,1.38
2022-08-05T08:30:05.937Z,1.20
2022-08-05T08:32:45.453Z,1.35
2022-08-05T08:35:35.244Z,1.20
2022-08-05T08:38:35.706Z,1.50
2022-08-05T08:41:51.239Z,1.10
2022-08-05T08:45:18.772Z,1.30
2022-08-05T08:48:06.916Z,1.00
2022-08-05T08:51:03.389Z,1.23
2022-08-05T08:53:55.057Z,1.27
2022-08-05T08:56:47.755Z,1.42
2022-08-05T08:59:36.769Z,1.30
2022-08-05T09:02:26.853Z,1.10
2022-08-05T09:05:17.294Z,1.30
2022-08-05T09:08:05.486Z,1.27
2022-08-05T09:10:56.751Z,1.10
2022-08-05T09:14:10.257Z,1.60
2022-08-05T09:16:52.158Z,1.40
2022-08-05T09:20:01.507Z,1.13
2022-08-05T09:23:19.121Z,1.30
2022-08-05T09:26:09.496Z,1.08
2022-08-05T09:29:01.403Z,0.90
2022-08-05T09:32:41.143Z,1.13
2022-08-05T09:35:26.693Z,1.20
2022-08-05T09:38:18.188Z,1.23
2022-08-05T09:41:16.250Z,1.40
2022-08-05T09:44:04.873Z,1.20
2022-08-05T09:47:10.389Z,1.20
2022-08-05T09:50:02.382Z,1.27
2022-08-05T09:52:58.841Z,1.17
2022-08-05T09:55:56.506Z,1.08
2022-08-05T09:58:58.397Z,1.10
2022-08-05T10:01:47.982Z,1.05
2022-08-05T10:04:45.175Z,0.90
2022-08-05T10:08:36.010Z,1.10
2022-08-05T10:10:54.296Z,0.77
2022-08-05T10:13:47.699Z,1.20
2022-08-05T10:16:52.158Z,1.02
2022-08-05T10:20:02.810Z,1.20
2022-08-05T10:22:50.743Z,1.25
2022-08-05T10:25:37.576Z,1.00
2022-08-05T10:28:29.397Z,1.30
2022-08-05T10:32:49.269Z,1.20
2022-08-05T10:34:25.950Z,1.00
2022-08-05T10:37:19.570Z,1.10
2022-08-05T10:40:18.506Z,1.30
2022-08-05T10:43:14.727Z,1.27
2022-08-05T10:46:06.699Z,1.40
2022-08-05T10:49:02.691Z,1.20
2022-08-05T10:52:00.697Z,1.17
2022-08-05T10:55:05.085Z,1.15
2022-08-05T10:58:08.383Z,1.08
2022-08-05T11:01:02.868Z,1.08
2022-08-05T11:04:05.403Z,1.30
2022-08-05T11:07:08.170Z,1.13
2022-08-05T11:10:09.732Z,1.40
2022-08-05T11:12:58.149Z,1.38
2022-08-05T11:16:01.252Z,1.50
2022-08-05T11:21:48.992Z,1.23
2022-08-05T11:24:36.179Z,1.02
2022-08-05T11:27:45.801Z,1.40
2022-08-05T11:31:58.328Z,1.20
2022-08-05T11:34:39.482Z,1.45
2022-08-05T11:38:30.911Z,1.20
2022-08-05T11:41:34.679Z,1.17
2022-08-05T11:44:40.088Z,1.30
2022-08-05T11:47:48.251Z,1.10
2022-08-05T11:50:38.283Z,1.42
2022-08-05T11:53:25.480Z,1.10
2022-08-05T11:56:12.469Z,1.25
2022-08-05T11:59:00.516Z,1.13
2022-08-05T12:01:58.730Z,1.30
2022-08-05T12:04:59.249Z,1.27
2022-08-05T12:08:03.142Z,1.27
2022-08-05T12:10:59.167Z,1.35
2022-08-05T12:13:58.758Z,1.35
2022-08-05T12:16:48.250Z,1.17
2022-08-05T12:20:16.644Z,1.50
2022-08-05T12:22:49.365Z,1.20
2022-08-05T12:25:50.850Z,1.30
2022-08-05T12:28:38.829Z,1.20
2022-08-05T12:31:33.032Z,1.25
2022-08-05T12:34:33.108Z,1.27
2022-08-05T12:37:24.709Z,1.30
2022-08-05T12:40:20.675Z,1.30
2022-08-05T12:43:20.570Z,1.35
2022-08-05T12:46:08.397Z,1.05
2022-08-05T12:49:00.447Z,1.27
2022-08-05T12:52:14.425Z,1.30
2022-08-05T12:54:57.653Z,1.30
2022-08-05T12:58:49.931Z,1.58
2022-08-05T13:01:59.953Z,1.30
2022-08-05T13:03:58.994Z,1.38
2022-08-05T13:06:51.723Z,1.50
2022-08-05T13:12:28.482Z,1.50
2022-08-05T13:15:18.094Z,1.58
2022-08-05T13:18:11.353Z,1.20
2022-08-05T13:21:06.858Z,1.42
2022-08-05T13:23:53.742Z,1.40
2022-08-05T13:26:41.521Z,1.27
2022-08-05T13:29:38.814Z,1.30
2022-08-05T13:32:50.638Z,1.42
2022-08-05T13:35:47.638Z,1.45
2022-08-05T13:38:42.275Z,1.23
2022-08-05T13:41:37.468Z,1.50
2022-08-05T13:44:24.306Z,2.00
2022-08-05T13:47:12.361Z,2.10
2022-08-05T13:50:19.157Z,2.20
2022-08-05T13:53:09.062Z,2.05
2022-08-05T13:56:02.996Z,2.00
2022-08-05T13:58:53.418Z,2.00
2022-08-05T14:01:46.594Z,1.75
2022-08-05T14:05:03.976Z,2.05
2022-08-05T14:08:02.917Z,2.00
2022-08-05T14:10:54.136Z,2.05
2022-08-05T14:13:49.623Z,1.85
2022-08-05T14:16:42.511Z,2.00
2022-08-05T14:19:29.310Z,1.77
2022-08-05T14:22:17.122Z,2.00
2022-08-05T14:25:21.475Z,2.50
2022-08-05T14:28:08.777Z,2.13
2022-08-05T14:34:19.173Z,2.10
2022-08-05T14:37:13.335Z,2.08
2022-08-05T14:40:02.218Z,2.35
2022-08-05T14:42:50.879Z,2.08
2022-08-05T14:45:38.647Z,2.17
2022-08-05T14:48:33.131Z,2.20
2022-08-05T14:51:20.406Z,2.05
2022-08-05T14:54:28.291Z,2.20
2022-08-05T14:57:16.784Z,2.33
2022-08-05T15:00:04.413Z,2.30
2022-08-05T15:02:53.520Z,2.17
2022-08-05T15:06:07.481Z,2.35
2022-08-05T15:09:01.384Z,1.90
2022-08-05T15:11:51.127Z,1.90
2022-08-05T15:14:49.901Z,2.00
2022-08-05T15:17:45.713Z,1.88
2022-08-05T15:20:34.598Z,1.83
2022-08-05T15:23:21.686Z,1.90
2022-08-05T15:26:09.182Z,1.83
2022-08-05T15:28:56.731Z,2.10
2022-08-05T15:31:52.431Z,1.80
2022-08-05T15:34:39.936Z,1.60
2022-08-05T15:38:08.419Z,1.95
2022-08-05T15:40:58.793Z,1.58
2022-08-05T15:43:45.309Z,1.63
2022-08-05T15:46:33.939Z,1.92
2022-08-05T15:49:40.875Z,1.60
2022-08-05T15:52:29.487Z,1.92
2022-08-05T15:56:01.851Z,1.50
2022-08-05T15:58:43.495Z,1.60
2022-08-05T16:01:39.430Z,1.88
2022-08-05T16:04:28.128Z,1.60
2022-08-05T16:07:14.840Z,2.00
2022-08-05T16:10:01.788Z,1.88
2022-08-05T16:12:49.442Z,1.90
2022-08-05T16:15:36.437Z,1.80
2022-08-05T16:18:28.066Z,1.65
2022-08-05T16:21:17.233Z,1.67
2022-08-05T16:24:04.182Z,1.83
2022-08-05T16:26:55.949Z,2.20
2022-08-05T16:29:47.221Z,2.10
2022-08-05T16:32:36.950Z,1.80
2022-08-05T16:35:27.887Z,1.63
2022-08-05T16:38:25.301Z,2.00
2022-08-05T16:41:29.745Z,2.78
2022-08-05T16:44:19.410Z,3.17
2022-08-05T16:47:07.746Z,4.35
2022-08-05T16:50:14.682Z,3.90
2022-08-05T16:53:11.953Z,3.72
2022-08-05T16:56:01.052Z,3.58
2022-08-05T16:58:48.830Z,4.20
2022-08-05T17:01:54.898Z,4.20
2022-08-05T17:04:42.723Z,4.75
2022-08-05T17:07:39.166Z,4.93
2022-08-05T17:10:30.794Z,4.85
2022-08-05T17:13:21.610Z,4.78
2022-08-05T17:16:32.833Z,4.80
2022-08-05T17:19:22.578Z,5.10
2022-08-05T17:22:09.493Z,5.15
2022-08-05T17:25:09.630Z,5.50
2022-08-05T17:28:15.529Z,5.63
2022-08-05T17:31:08.258Z,5.00
2022-08-05T17:34:10.553Z,5.03
2022-08-05T17:37:12.930Z,5.05
2022-08-05T17:40:14.152Z,5.55
2022-08-05T17:43:01.030Z,5.28
2022-08-05T17:45:47.593Z,5.35
2022-08-05T17:48:43.316Z,5.35
2022-08-05T17:51:40.379Z,5.35
2022-08-05T17:54:27.505Z,5.60
2022-08-05T17:57:14.527Z,5.78
2022-08-05T18:00:04.927Z,6.32
2022-08-05T18:02:52.391Z,5.90
2022-08-05T18:05:40.853Z,6.78
2022-08-05T18:08:28.466Z,6.72
2022-08-05T18:11:24.052Z,6.85
2022-08-05T18:14:20.550Z,8.23
2022-08-05T18:17:08.278Z,8.38
2022-08-05T18:20:15.399Z,8.38
2022-08-05T18:23:11.425Z,8.23
2022-08-05T18:25:59.432Z,8.65
2022-08-05T18:28:46.700Z,9.25
2022-08-05T18:31:35.430Z,10.45
2022-08-05T18:34:22.608Z,10.18
2022-08-05T18:37:33.919Z,10.13
2022-08-05T18:40:33.754Z,11.15
2022-08-05T18:43:37.871Z,10.15
2022-08-05T18:46:29.061Z,10.75
2022-08-05T18:49:57.270Z,10.07
2022-08-05T18:52:41.733Z,10.32
2022-08-05T18:55:39.288Z,9.52
2022-08-05T18:58:28.883Z,10.32
2022-08-05T19:01:18.023Z,9.15
2022-08-05T19:04:05.631Z,8.98
2022-08-05T19:06:58.609Z,8.70
2022-08-05T19:09:46.882Z,8.23
2022-08-05T19:12:38.724Z,7.18
2022-08-05T19:16:00.164Z,6.53
2022-08-05T19:18:32.477Z,6.32
2022-08-05T19:21:18.950Z,5.47
2022-08-05T19:24:12.510Z,5.07
2022-08-05T19:26:59.930Z,3.20
2022-08-05T19:29:52.489Z,2.53
2022-08-05T19:32:39.367Z,2.25
2022-08-05T19:35:26.630Z,2.00
2022-08-05T19:38:33.547Z,2.20
2022-08-05T19:41:58.231Z,1.85
2022-08-05T19:44:29.901Z,1.80
2022-08-05T19:47:18.214Z,1.38
2022-08-05T19:50:06.170Z,1.50
2022-08-05T19:52:54.715Z,1.50
2022-08-05T19:56:14.451Z,1.40
2022-08-05T19:58:54.208Z,1.50
2022-08-05T20:01:41.233Z,1.38
2022-08-05T20:04:31.608Z,1.63
2022-08-05T20:07:47.469Z,1.38
2022-08-05T20:10:25.210Z,1.40
2022-08-05T20:13:12.318Z,1.45
2022-08-05T20:16:02.152Z,1.50
2022-08-05T20:18:55.390Z,1.38
2022-08-05T20:21:43.782Z,1.10
2022-08-05T20:24:32.858Z,1.08
2022-08-05T20:27:26.447Z,1.23
2022-08-05T20:30:14.420Z,1.30
2022-08-05T20:33:05.068Z,1.40
2022-08-05T20:35:51.841Z,1.20
2022-08-05T20:38:40.793Z,1.30
2022-08-05T20:41:43.905Z,1.00
2022-08-05T20:44:31.287Z,1.40
2022-08-05T20:47:18.261Z,1.13
2022-08-05T20:50:07.443Z,1.10
2022-08-05T20:52:54.550Z,1.00
2022-08-05T20:55:56.379Z,1.10
2022-08-05T20:58:51.846Z,1.10
2022-08-05T21:01:39.128Z,0.90
2022-08-05T21:04:26.931Z,1.35
2022-08-05T21:07:14.086Z,1.00
2022-08-05T21:10:00.480Z,0.98
2022-08-05T21:13:08.297Z,0.90
2022-08-05T21:15:56.900Z,0.95
2022-08-05T21:18:45.318Z,0.90
2022-08-05T21:21:44.131Z,0.80
2022-08-05T21:24:37.341Z,0.85
2022-08-05T21:27:27.255Z,0.80
2022-08-05T21:30:17.466Z,0.80
2022-08-05T21:33:08.301Z,0.73
2022-08-05T21:36:08.633Z,0.90
2022-08-05T21:38:56.825Z,0.90
2022-08-05T21:41:52.772Z,0.68
2022-08-05T21:44:48.588Z,0.80
2022-08-05T21:47:57.231Z,1.00
2022-08-05T21:50:53.024Z,1.13
2022-08-05T21:53:41.464Z,0.90
2022-08-05T21:56:27.990Z,0.70
2022-08-05T21:59:22.466Z,0.88
2022-08-05T22:02:10.726Z,0.90
2022-08-05T22:04:58.800Z,1.00
2022-08-05T22:07:58.714Z,0.90
2022-08-05T22:10:49.295Z,0.90
2022-08-05T22:14:19.693Z,1.00
2022-08-05T22:16:50.800Z,1.05
2022-08-05T22:20:01.495Z,1.15
2022-08-05T22:23:04.221Z,1.00
2022-08-05T22:26:21.333Z,0.90
2022-08-05T22:31:59.518Z,0.90
2022-08-05T22:34:49.384Z,0.80
2022-08-05T22:37:58.659Z,0.90
2022-08-05T22:40:49.998Z,0.98
2022-08-05T22:43:41.705Z,0.68
2022-08-05T22:46:28.776Z,0.80
2022-08-05T22:50:17.212Z,0.90
2022-08-05T22:52:32.595Z,0.80
2022-08-05T22:55:22.289Z,0.60
2022-08-05T22:58:11.818Z,0.93
2022-08-05T23:01:01.094Z,0.80
2022-08-05T23:03:58.332Z,0.93
2022-08-05T23:06:47.736Z,0.70
2022-08-05T23:09:53.261Z,0.90
2022-08-05T23:12:43.171Z,0.93
2022-08-05T23:15:35.221Z,0.90
2022-08-05T23:18:23.450Z,0.88
2022-08-05T23:21:10.405Z,0.73
2022-08-05T23:23:57.184Z,0.90
2022-08-05T23:26:44.173Z,0.73
2022-08-05T23:29:34.797Z,0.95
2022-08-05T23:32:24.979Z,0.88
2022-08-05T23:35:14.228Z,0.82
2022-08-05T23:38:02.983Z,0.80
2022-08-05T23:40:50.842Z,0.70
2022-08-05T23:44:05.474Z,1.00
2022-08-05T23:46:46.825Z,0.80
2022-08-05T23:49:36.164Z,0.70
2022-08-05T23:52:36.190Z,0.80
2022-08-05T23:55:36.778Z,0.80
2022-08-05T23:58:31.346Z,0.75
